createdAt,value
2022-08-26T00:01:57.188Z,74.16
2022-08-26T00:04:27.847Z,75.03
2022-08-26T00:06:59.016Z,76.10
2022-08-26T00:09:29.540Z,75.30
2022-08-26T00:12:00.124Z,74.22
2022-08-26T00:14:31.627Z,75.66
2022-08-26T00:17:02.450Z,76.77
2022-08-26T00:19:32.885Z,76.60
2022-08-26T00:22:03.697Z,77.04
2022-08-26T00:24:34.650Z,77.30
2022-08-26T00:27:06.268Z,77.67
2022-08-26T00:29:37.639Z,77.14
2022-08-26T00:32:09.039Z,78.04
2022-08-26T00:34:41.867Z,78.03
2022-08-26T00:37:15.639Z,78.40
2022-08-26T00:39:46.672Z,78.24
2022-08-26T00:42:17.239Z,78.84
2022-08-26T00:44:48.388Z,78.45
2022-08-26T00:47:31.005Z,79.31
2022-08-26T00:50:04.268Z,80.20
2022-08-26T00:52:36.560Z,80.39
2022-08-26T00:55:22.385Z,80.18
2022-08-26T00:57:53.490Z,80.71
2022-08-26T01:00:30.450Z,81.61
2022-08-26T01:03:05.263Z,80.87
2022-08-26T01:05:37.488Z,79.69
2022-08-26T01:08:08.322Z,80.77
2022-08-26T01:10:38.885Z,79.69
2022-08-26T01:13:11.940Z,80.69
2022-08-26T01:15:50.488Z,80.09
2022-08-26T01:18:21.411Z,81.55
2022-08-26T01:21:01.096Z,80.72
2022-08-26T01:23:36.471Z,80.48
2022-08-26T01:26:19.752Z,80.95
2022-08-26T01:28:53.271Z,81.27
2022-08-26T01:31:27.760Z,81.23
2022-08-26T01:34:09.084Z,80.51
2022-08-26T01:36:41.372Z,81.20
2022-08-26T01:39:13.337Z,81.97
2022-08-26T01:41:45.392Z,82.80
2022-08-26T01:44:23.148Z,82.20
2022-08-26T01:46:55.395Z,82.26
2022-08-26T01:49:28.503Z,82.22
2022-08-26T01:52:02.212Z,82.45
2022-08-26T01:54:34.481Z,83.21
2022-08-26T01:57:05.458Z,83.11
2022-08-26T01:59:36.769Z,83.59
2022-08-26T02:02:07.430Z,84.48
2022-08-26T02:05:02.173Z,84.12
2022-08-26T02:07:34.684Z,84.19
2022-08-26T02:10:05.897Z,84.91
2022-08-26T02:12:36.748Z,84.67
2022-08-26T02:15:11.211Z,85.02
2022-08-26T02:17:48.063Z,86.49
2022-08-26T02:20:24.710Z,85.66
2022-08-26T02:22:57.049Z,84.91
2022-08-26T02:25:49.772Z,85.61
2022-08-26T02:28:20.433Z,85.79
2022-08-26T02:30:50.938Z,86.23
2022-08-26T02:33:21.417Z,85.97
2022-08-26T02:35:52.252Z,85.56
2022-08-26T02:38:22.733Z,85.55
2022-08-26T02:40:54.089Z,86.38
2022-08-26T02:43:31.748Z,85.20
2022-08-26T02:46:03.463Z,86.16
2022-08-26T02:48:34.053Z,85.89
2022-08-26T02:51:05.045Z,86.05
2022-08-26T02:53:35.600Z,85.75
2022-08-26T02:56:09.585Z,85.19
2022-08-26T02:58:39.960Z,86.17
2022-08-26T03:01:22.316Z,86.29
2022-08-26T03:03:52.714Z,86.45
2022-08-26T03:06:24.096Z,86.75
2022-08-26T03:08:54.669Z,87.04
2022-08-26T03:11:28.564Z,87.26
2022-08-26T03:14:04.725Z,87.72
2022-08-26T03:16:37.601Z,87.71
2022-08-26T03:19:10.205Z,87.97
2022-08-26T03:21:40.782Z,88.24
2022-08-26T03:24:12.999Z,87.93
2022-08-26T03:26:52.495Z,88.09
2022-08-26T03:29:42.571Z,88.11
2022-08-26T03:32:13.924Z,88.66
2022-08-26T03:34:44.506Z,88.96
2022-08-26T03:37:17.950Z,88.93
2022-08-26T03:39:49.055Z,89.69
2022-08-26T03:42:21.438Z,89.45
2022-08-26T03:44:52.774Z,89.57
2022-08-26T03:47:24.461Z,89.81
2022-08-26T03:49:54.784Z,90.10
2022-08-26T03:52:25.854Z,90.44
2022-08-26T03:54:56.256Z,90.34
2022-08-26T03:57:26.819Z,90.82
2022-08-26T03:59:58.264Z,90.75
2022-08-26T04:02:29.449Z,91.02
2022-08-26T04:04:59.841Z,91.45
2022-08-26T04:07:29.799Z,90.95
2022-08-26T04:10:02.384Z,91.55
2022-08-26T04:12:32.856Z,91.79
2022-08-26T04:15:03.385Z,91.88
2022-08-26T04:17:33.812Z,92.13
2022-08-26T04:20:05.263Z,92.29
2022-08-26T04:22:37.116Z,92.53
2022-08-26T04:25:07.706Z,92.99
2022-08-26T04:27:38.206Z,92.73
2022-08-26T04:30:11.713Z,93.25
2022-08-26T04:32:42.597Z,93.25
2022-08-26T04:35:13.040Z,93.72
2022-08-26T04:37:45.634Z,93.32
2022-08-26T04:40:16.064Z,93.15
2022-08-26T04:42:46.575Z,92.72
2022-08-26T04:45:17.024Z,92.75
2022-08-26T04:47:48.225Z,93.13
2022-08-26T04:50:18.686Z,92.68
2022-08-26T04:52:53.511Z,92.71
2022-08-26T04:55:25.237Z,93.13
2022-08-26T04:58:11.918Z,93.73
2022-08-26T05:00:42.376Z,93.82
2022-08-26T05:03:13.195Z,93.60
2022-08-26T05:05:45.354Z,94.00
2022-08-26T05:08:17.588Z,93.98
2022-08-26T05:10:52.458Z,94.14
2022-08-26T05:13:24.162Z,93.84
2022-08-26T05:15:54.727Z,93.90
2022-08-26T05:18:32.545Z,93.54
2022-08-26T05:21:04.322Z,93.67
2022-08-26T05:23:37.941Z,93.57
2022-08-26T05:26:09.800Z,93.88
2022-08-26T05:28:40.418Z,93.62
2022-08-26T05:31:20.453Z,93.51
2022-08-26T05:33:51.299Z,93.44
2022-08-26T05:36:24.565Z,93.35
2022-08-26T05:38:59.507Z,93.22
2022-08-26T05:41:34.564Z,93.62
2022-08-26T05:44:09.650Z,93.82
2022-08-26T05:46:41.874Z,93.34
2022-08-26T05:49:17.095Z,93.47
2022-08-26T05:51:48.092Z,93.28
2022-08-26T05:54:22.138Z,92.93
2022-08-26T05:56:53.675Z,93.15
2022-08-26T05:59:24.884Z,93.57
2022-08-26T06:01:58.863Z,94.12
2022-08-26T06:04:29.449Z,93.73
2022-08-26T06:07:00.915Z,93.60
2022-08-26T06:09:31.695Z,93.83
2022-08-26T06:12:03.098Z,94.11
2022-08-26T06:14:33.840Z,94.14
2022-08-26T06:17:04.513Z,94.16
2022-08-26T06:19:35.050Z,94.11
2022-08-26T06:22:25.196Z,93.96
2022-08-26T06:25:14.449Z,93.88
2022-08-26T06:27:45.642Z,93.87
2022-08-26T06:30:16.352Z,94.31
2022-08-26T06:32:47.667Z,94.36
2022-08-26T06:35:19.985Z,94.13
2022-08-26T06:37:51.596Z,94.01
2022-08-26T06:40:24.392Z,94.11
2022-08-26T06:42:54.855Z,94.28
2022-08-26T06:45:25.464Z,94.39
2022-08-26T06:47:55.888Z,93.97
2022-08-26T06:50:27.052Z,94.34
2022-08-26T06:52:57.999Z,94.13
2022-08-26T06:55:29.488Z,94.03
2022-08-26T06:57:59.920Z,94.24
2022-08-26T07:00:29.819Z,93.06
2022-08-26T07:03:00.124Z,94.56
2022-08-26T07:05:30.866Z,94.33
2022-08-26T07:08:01.594Z,94.49
2022-08-26T07:10:32.727Z,94.00
2022-08-26T07:13:03.327Z,94.26
2022-08-26T07:15:39.422Z,94.51
2022-08-26T07:18:10.745Z,94.74
2022-08-26T07:20:43.034Z,94.55
2022-08-26T07:23:13.545Z,94.61
2022-08-26T07:25:44.621Z,94.76
2022-08-26T07:28:16.489Z,94.54
2022-08-26T07:30:46.506Z,94.05
2022-08-26T07:33:17.058Z,94.90
2022-08-26T07:35:47.892Z,94.77
2022-08-26T07:38:18.356Z,95.24
2022-08-26T07:40:49.728Z,94.29
2022-08-26T07:43:20.462Z,94.76
2022-08-26T07:45:51.470Z,94.88
2022-08-26T07:48:22.101Z,94.81
2022-08-26T07:50:54.085Z,94.62
2022-08-26T07:53:24.511Z,94.88
2022-08-26T07:55:55.371Z,94.78
2022-08-26T07:58:26.698Z,95.00
2022-08-26T08:00:58.300Z,94.64
2022-08-26T08:03:29.795Z,94.68
2022-08-26T08:06:00.937Z,95.08
2022-08-26T08:08:32.534Z,94.81
2022-08-26T08:11:03.530Z,94.68
2022-08-26T08:13:36.371Z,94.91
2022-08-26T08:16:12.630Z,94.94
2022-08-26T08:18:43.359Z,94.88
2022-08-26T08:21:21.657Z,95.00
2022-08-26T08:23:54.211Z,94.86
2022-08-26T08:26:26.145Z,94.75
2022-08-26T08:28:58.997Z,94.88
2022-08-26T08:34:26.405Z,94.41
2022-08-26T08:36:57.548Z,94.23
2022-08-26T08:39:28.163Z,94.48
2022-08-26T08:42:10.947Z,94.62
2022-08-26T08:44:43.445Z,93.96
2022-08-26T08:47:32.991Z,94.02
2022-08-26T08:50:16.367Z,94.99
2022-08-26T08:52:52.889Z,95.59
2022-08-26T08:55:26.070Z,95.28
2022-08-26T08:58:08.407Z,95.59
2022-08-26T09:00:48.242Z,95.38
2022-08-26T09:03:48.926Z,94.66
2022-08-26T09:06:20.106Z,95.10
2022-08-26T09:08:53.217Z,94.97
2022-08-26T09:11:25.508Z,94.85
2022-08-26T09:13:57.353Z,94.65
2022-08-26T09:16:52.947Z,94.57
2022-08-26T09:19:39.533Z,94.77
2022-08-26T09:22:10.477Z,94.69
2022-08-26T09:24:48.545Z,94.38
2022-08-26T09:27:41.293Z,94.83
2022-08-26T09:30:28.714Z,95.84
2022-08-26T09:33:10.326Z,95.55
2022-08-26T09:35:48.778Z,95.02
2022-08-26T09:38:36.322Z,94.97
2022-08-26T09:41:22.394Z,95.23
2022-08-26T09:44:14.777Z,95.81
2022-08-26T09:46:57.739Z,96.00
2022-08-26T09:49:37.953Z,95.53
2022-08-26T09:52:15.221Z,95.40
2022-08-26T09:54:47.245Z,95.35
2022-08-26T09:57:28.628Z,95.15
2022-08-26T10:00:02.227Z,95.07
2022-08-26T10:02:47.581Z,95.62
2022-08-26T10:05:29.141Z,95.40
2022-08-26T10:08:01.552Z,95.52
2022-08-26T10:10:41.176Z,95.84
2022-08-26T10:13:43.660Z,96.07
2022-08-26T10:16:28.393Z,96.33
2022-08-26T10:19:13.845Z,96.02
2022-08-26T10:22:09.239Z,95.63
2022-08-26T10:24:46.447Z,95.66
2022-08-26T10:27:38.903Z,95.30
2022-08-26T10:30:23.116Z,95.26
2022-08-26T10:33:19.847Z,94.98
2022-08-26T10:36:12.262Z,94.62
2022-08-26T10:38:46.187Z,94.33
2022-08-26T10:41:22.911Z,94.32
2022-08-26T10:43:57.990Z,94.10
2022-08-26T10:46:41.027Z,93.70
2022-08-26T10:49:15.166Z,93.67
2022-08-26T10:52:12.278Z,93.79
2022-08-26T10:54:56.175Z,93.14
2022-08-26T10:57:42.408Z,92.60
2022-08-26T11:00:39.666Z,92.44
2022-08-26T11:03:25.889Z,92.39
2022-08-26T11:06:20.688Z,91.69
2022-08-26T11:08:55.100Z,91.38
2022-08-26T11:11:43.701Z,91.20
2022-08-26T11:14:28.486Z,91.41
2022-08-26T11:17:03.287Z,91.55
2022-08-26T11:19:59.279Z,91.43
2022-08-26T11:22:30.489Z,91.40
2022-08-26T11:25:03.125Z,91.28
2022-08-26T11:27:39.649Z,90.93
2022-08-26T11:30:18.525Z,90.41
2022-08-26T11:32:58.507Z,90.69
2022-08-26T11:35:28.936Z,90.63
2022-08-26T11:38:05.347Z,90.17
2022-08-26T11:40:43.047Z,89.70
2022-08-26T11:43:20.705Z,90.11
2022-08-26T11:46:05.276Z,89.92
2022-08-26T11:48:41.968Z,89.80
2022-08-26T11:51:33.493Z,89.76
2022-08-26T11:54:30.477Z,90.12
2022-08-26T11:57:11.992Z,89.53
2022-08-26T11:59:44.719Z,89.32
2022-08-26T12:02:19.037Z,89.68
2022-08-26T12:04:53.089Z,89.39
2022-08-26T12:07:28.889Z,89.36
2022-08-26T12:10:02.323Z,88.87
2022-08-26T12:12:39.961Z,88.81
2022-08-26T12:15:21.081Z,88.30
2022-08-26T12:17:54.341Z,88.20
2022-08-26T12:20:47.076Z,88.21
2022-08-26T12:23:36.741Z,88.16
2022-08-26T12:26:32.871Z,87.97
2022-08-26T12:29:20.071Z,87.36
2022-08-26T12:32:19.004Z,87.05
2022-08-26T12:34:50.337Z,86.84
2022-08-26T12:37:20.942Z,86.35
2022-08-26T12:39:51.741Z,87.14
2022-08-26T12:42:22.289Z,87.07
2022-08-26T12:44:53.708Z,86.93
2022-08-26T12:47:45.289Z,86.97
2022-08-26T12:50:28.174Z,86.28
2022-08-26T12:53:00.495Z,87.34
2022-08-26T12:55:39.467Z,85.20
2022-08-26T12:58:21.892Z,85.62
2022-08-26T13:01:01.016Z,85.84
2022-08-26T13:03:47.235Z,84.87
2022-08-26T13:06:23.883Z,85.92
2022-08-26T13:09:13.755Z,83.97
2022-08-26T13:11:44.148Z,83.90
2022-08-26T13:14:23.865Z,83.61
2022-08-26T13:16:55.290Z,83.22
2022-08-26T13:19:27.259Z,82.80
2022-08-26T13:22:02.290Z,82.62
2022-08-26T13:24:41.986Z,81.62
2022-08-26T13:27:15.865Z,80.83
2022-08-26T13:29:46.271Z,81.19
2022-08-26T13:32:16.906Z,80.61
2022-08-26T13:34:51.379Z,80.98
2022-08-26T13:37:34.384Z,80.18
2022-08-26T13:40:09.516Z,79.38
2022-08-26T13:42:49.606Z,79.62
2022-08-26T13:45:20.555Z,78.69
2022-08-26T13:47:51.037Z,78.08
2022-08-26T13:50:21.359Z,77.89
2022-08-26T13:52:51.798Z,77.80
2022-08-26T13:55:22.286Z,78.71
2022-08-26T13:57:53.663Z,77.96
2022-08-26T14:00:24.399Z,78.35
2022-08-26T14:02:55.444Z,77.77
2022-08-26T14:05:25.898Z,76.56
2022-08-26T14:07:58.726Z,75.57
2022-08-26T14:10:30.028Z,74.09
2022-08-26T14:13:00.455Z,73.51
2022-08-26T14:15:33.635Z,72.33
2022-08-26T14:18:06.562Z,71.71
2022-08-26T14:20:40.073Z,71.81
2022-08-26T14:23:13.905Z,71.30
2022-08-26T14:25:45.069Z,69.37
2022-08-26T14:28:15.675Z,65.80
2022-08-26T14:30:51.542Z,65.31
2022-08-26T14:33:26.662Z,65.52
2022-08-26T14:36:16.813Z,65.51
2022-08-26T14:38:48.925Z,65.03
2022-08-26T14:41:20.587Z,63.87
2022-08-26T14:43:55.898Z,61.50
2022-08-26T14:46:30.382Z,61.33
2022-08-26T14:49:07.291Z,62.47
2022-08-26T14:51:42.109Z,62.53
2022-08-26T14:54:13.593Z,64.49
2022-08-26T14:57:06.789Z,62.71
2022-08-26T14:59:49.635Z,62.36
2022-08-26T15:02:29.673Z,63.37
2022-08-26T15:05:06.117Z,62.48
2022-08-26T15:07:36.621Z,60.12
2022-08-26T15:10:09.397Z,61.16
2022-08-26T15:12:40.546Z,60.22
2022-08-26T15:15:12.874Z,59.70
2022-08-26T15:17:44.568Z,61.17
2022-08-26T15:20:15.676Z,58.83
2022-08-26T15:22:46.221Z,58.05
2022-08-26T15:25:17.622Z,56.70
2022-08-26T15:27:48.089Z,59.11
2022-08-26T15:30:19.823Z,62.51
2022-08-26T15:32:50.229Z,57.26
2022-08-26T15:35:21.455Z,56.79
2022-08-26T15:40:28.264Z,58.29
2022-08-26T15:43:17.878Z,56.74
2022-08-26T15:45:49.187Z,55.39
2022-08-26T15:48:20.258Z,54.56
2022-08-26T15:50:56.703Z,54.19
2022-08-26T15:53:28.074Z,53.72
2022-08-26T15:55:59.762Z,53.69
2022-08-26T15:58:31.065Z,54.76
2022-08-26T16:01:01.880Z,56.05
2022-08-26T16:03:32.209Z,55.00
2022-08-26T16:06:03.151Z,54.25
2022-08-26T16:08:36.479Z,51.36
2022-08-26T16:11:07.668Z,51.72
2022-08-26T16:13:39.885Z,49.87
2022-08-26T16:16:11.548Z,50.63
2022-08-26T16:18:43.101Z,52.07
2022-08-26T16:21:22.291Z,52.99
2022-08-26T16:23:53.372Z,52.50
2022-08-26T16:26:27.713Z,52.59
2022-08-26T16:28:58.207Z,52.20
2022-08-26T16:31:28.610Z,51.68
2022-08-26T16:33:59.107Z,51.95
2022-08-26T16:36:30.194Z,50.83
2022-08-26T16:39:00.594Z,51.15
2022-08-26T16:41:32.919Z,48.26
2022-08-26T16:44:03.639Z,48.07
2022-08-26T16:46:35.002Z,50.32
2022-08-26T16:49:05.982Z,49.61
2022-08-26T16:51:38.291Z,46.70
2022-08-26T16:54:10.236Z,47.28
2022-08-26T16:56:41.289Z,47.99
2022-08-26T16:59:12.716Z,46.33
2022-08-26T17:01:43.266Z,47.19
2022-08-26T17:04:13.917Z,45.60
2022-08-26T17:06:44.806Z,46.67
2022-08-26T17:09:15.259Z,45.36
2022-08-26T17:11:46.111Z,40.50
2022-08-26T17:14:16.487Z,41.90
2022-08-26T17:16:52.501Z,40.72
2022-08-26T17:19:23.342Z,43.90
2022-08-26T17:21:53.850Z,43.70
2022-08-26T17:24:24.265Z,40.66
2022-08-26T17:26:55.692Z,35.54
2022-08-26T17:29:26.327Z,37.41
2022-08-26T17:31:57.214Z,38.13
2022-08-26T17:34:27.870Z,37.87
2022-08-26T17:36:58.290Z,37.64
2022-08-26T17:39:28.760Z,37.51
2022-08-26T17:41:59.248Z,34.24
2022-08-26T17:44:29.685Z,33.85
2022-08-26T17:46:59.927Z,34.56
2022-08-26T17:49:30.346Z,35.71
2022-08-26T17:52:01.813Z,36.81
2022-08-26T17:54:32.201Z,35.48
2022-08-26T17:57:02.352Z,37.53
2022-08-26T17:59:32.913Z,35.46
2022-08-26T18:02:03.547Z,35.63
2022-08-26T18:04:33.992Z,36.73
2022-08-26T18:07:04.875Z,36.77
2022-08-26T18:09:35.953Z,38.76
2022-08-26T18:12:06.789Z,37.36
2022-08-26T18:14:37.410Z,35.19
2022-08-26T18:17:09.248Z,35.04
2022-08-26T18:19:39.689Z,35.93
2022-08-26T18:22:10.319Z,35.47
2022-08-26T18:24:52.909Z,37.45
2022-08-26T18:27:29.677Z,34.15
2022-08-26T18:30:00.281Z,33.68
2022-08-26T18:32:30.696Z,34.53
2022-08-26T18:35:01.078Z,36.29
2022-08-26T18:37:32.200Z,36.70
2022-08-26T18:40:02.654Z,38.29
2022-08-26T18:42:34.711Z,38.24
2022-08-26T18:45:07.899Z,41.65
2022-08-26T18:47:38.368Z,41.01
2022-08-26T18:50:09.859Z,40.11
2022-08-26T18:52:41.735Z,43.23
2022-08-26T18:55:12.611Z,47.32
2022-08-26T18:57:43.108Z,47.65
2022-08-26T19:00:14.703Z,42.85
2022-08-26T19:02:51.835Z,44.36
2022-08-26T19:05:22.787Z,46.94
2022-08-26T19:07:53.717Z,46.28
2022-08-26T19:10:24.198Z,48.70
2022-08-26T19:12:57.388Z,46.62
2022-08-26T19:15:29.255Z,45.73
2022-08-26T19:18:00.278Z,46.33
2022-08-26T19:20:30.834Z,46.96
2022-08-26T19:23:10.640Z,45.64
2022-08-26T19:25:54.564Z,43.65
2022-08-26T19:28:24.970Z,48.89
2022-08-26T19:30:55.536Z,48.31
2022-08-26T19:33:26.142Z,48.18
2022-08-26T19:35:57.396Z,49.06
2022-08-26T19:38:27.876Z,48.59
2022-08-26T19:40:58.804Z,47.23
2022-08-26T19:43:29.686Z,50.57
2022-08-26T19:46:02.537Z,49.62
2022-08-26T19:48:33.133Z,51.16
2022-08-26T19:51:03.486Z,51.35
2022-08-26T19:53:33.949Z,52.91
2022-08-26T19:56:04.454Z,52.52
2022-08-26T19:58:34.863Z,50.57
2022-08-26T20:01:06.798Z,50.74
2022-08-26T20:03:38.033Z,51.39
2022-08-26T20:06:10.302Z,52.40
2022-08-26T20:08:43.030Z,53.39
2022-08-26T20:11:17.556Z,53.48
2022-08-26T20:13:49.357Z,55.32
2022-08-26T20:16:20.095Z,60.69
2022-08-26T20:19:08.688Z,63.26
2022-08-26T20:21:40.242Z,63.60
2022-08-26T20:24:17.097Z,66.45
2022-08-26T20:26:48.382Z,67.09
2022-08-26T20:29:20.758Z,68.15
2022-08-26T20:31:51.375Z,69.43
2022-08-26T20:34:22.338Z,70.57
2022-08-26T20:36:53.017Z,71.27
2022-08-26T20:39:24.235Z,72.06
2022-08-26T20:41:55.369Z,72.66
2022-08-26T20:44:26.788Z,73.11
2022-08-26T20:46:57.890Z,73.59
2022-08-26T20:49:30.945Z,73.89
2022-08-26T20:52:03.956Z,74.34
2022-08-26T20:54:34.437Z,74.93
2022-08-26T20:57:05.200Z,75.43
2022-08-26T20:59:35.975Z,75.38
2022-08-26T21:02:06.435Z,75.60
2022-08-26T21:04:36.986Z,75.79
2022-08-26T21:07:07.427Z,75.84
2022-08-26T21:09:38.467Z,75.97
2022-08-26T21:12:09.116Z,76.22
2022-08-26T21:18:04.454Z,76.41
2022-08-26T21:20:35.070Z,76.69
2022-08-26T21:23:07.389Z,76.78
2022-08-26T21:25:37.932Z,76.89
2022-08-26T21:28:08.543Z,76.50
2022-08-26T21:30:40.770Z,76.39
2022-08-26T21:33:11.727Z,76.04
2022-08-26T21:35:42.262Z,76.66
2022-08-26T21:38:12.810Z,75.48
2022-08-26T21:40:43.204Z,75.83
2022-08-26T21:43:25.983Z,75.97
2022-08-26T21:46:13.984Z,76.15
2022-08-26T21:48:50.379Z,75.88
2022-08-26T21:51:24.230Z,76.07
2022-08-26T21:53:56.191Z,76.13
2022-08-26T21:56:30.158Z,76.57
2022-08-26T21:59:02.263Z,76.86
2022-08-26T22:01:36.531Z,76.67
2022-08-26T22:04:09.236Z,76.57
2022-08-26T22:06:51.286Z,76.00
2022-08-26T22:09:28.473Z,75.92
2022-08-26T22:12:00.356Z,75.98
2022-08-26T22:14:31.484Z,75.68
2022-08-26T22:17:03.905Z,75.86
2022-08-26T22:19:39.145Z,76.13
2022-08-26T22:22:17.844Z,76.13
2022-08-26T22:24:48.792Z,75.27
2022-08-26T22:27:19.808Z,74.63
2022-08-26T22:29:51.762Z,75.16
2022-08-26T22:32:41.764Z,75.37
2022-08-26T22:35:37.404Z,75.03
2022-08-26T22:38:09.505Z,75.16
2022-08-26T22:40:46.107Z,74.53
2022-08-26T22:43:20.300Z,75.86
2022-08-26T22:45:52.695Z,76.05
2022-08-26T22:48:29.728Z,76.11
2022-08-26T22:51:00.726Z,77.37
2022-08-26T22:53:32.726Z,77.08
2022-08-26T22:56:07.463Z,77.93
2022-08-26T22:58:38.698Z,78.23
2022-08-26T23:01:09.906Z,77.90
2022-08-26T23:03:40.447Z,78.10
2022-08-26T23:06:11.985Z,78.41
2022-08-26T23:08:43.840Z,78.55
2022-08-26T23:11:16.264Z,78.85
2022-08-26T23:13:47.524Z,78.54
2022-08-26T23:16:18.562Z,79.27
2022-08-26T23:18:49.652Z,78.77
2022-08-26T23:21:23.304Z,79.08
2022-08-26T23:23:54.212Z,79.50
2022-08-26T23:26:25.095Z,79.50
2022-08-26T23:28:59.381Z,77.19
2022-08-26T23:31:31.635Z,78.34
2022-08-26T23:34:23.214Z,78.73
2022-08-26T23:36:55.776Z,77.47
2022-08-26T23:39:26.906Z,79.48
2022-08-26T23:41:58.698Z,79.31
2022-08-26T23:44:32.542Z,78.70
2022-08-26T23:47:03.692Z,78.65
2022-08-26T23:49:38.624Z,78.38
2022-08-26T23:52:32.759Z,79.28
2022-08-26T23:55:04.012Z,79.52
2022-08-26T23:57:35.823Z,79.86
